sensor_id;sensor_type;location;lat;lon;timestamp;noise_LAeq;noise_LA_min;noise_LA_max;noise_LA01;noise_LA95
72276;Laerm;61204;49.980;8.358;2022-10-16T00:01:29;48.70;44.33;53.87;;
72276;Laerm;61204;49.980;8.358;2022-10-16T00:03:58;48.91;43.06;60.32;;
72276;Laerm;61204;49.980;8.358;2022-10-16T00:06:26;47.21;40.58;57.03;;
72276;Laerm;61204;49.980;8.358;2022-10-16T00:08:52;43.54;37.81;50.51;;
72276;Laerm;61204;49.980;8.358;2022-10-16T00:11:32;44.13;37.82;55.42;;
72276;Laerm;61204;49.980;8.358;2022-10-16T00:14:03;44.67;38.80;53.00;;
72276;Laerm;61204;49.980;8.358;2022-10-16T00:16:30;45.25;39.80;53.32;;
72276;Laerm;61204;49.980;8.358;2022-10-16T00:18:57;42.85;38.76;48.43;;
72276;Laerm;61204;49.980;8.358;2022-10-16T00:21:28;42.99;38.76;48.33;;
72276;Laerm;61204;49.980;8.358;2022-10-16T00:24:03;42.19;37.85;49.05;;
72276;Laerm;61204;49.980;8.358;2022-10-16T00:26:32;41.48;36.55;55.28;;
72276;Laerm;61204;49.980;8.358;2022-10-16T00:29:00;44.81;39.46;53.93;;
72276;Laerm;61204;49.980;8.358;2022-10-16T00:31:27;45.67;38.12;60.72;;
72276;Laerm;61204;49.980;8.358;2022-10-16T00:33:53;44.22;39.53;56.92;;
72276;Laerm;61204;49.980;8.358;2022-10-16T00:36:24;42.50;37.60;48.69;;
72276;Laerm;61204;49.980;8.358;2022-10-16T00:38:56;44.94;35.78;55.05;;
72276;Laerm;61204;49.980;8.358;2022-10-16T00:41:24;44.91;40.44;53.03;;
72276;Laerm;61204;49.980;8.358;2022-10-16T00:43:56;47.47;40.67;59.16;;
72276;Laerm;61204;49.980;8.358;2022-10-16T00:46:40;45.65;40.00;50.81;;
72276;Laerm;61204;49.980;8.358;2022-10-16T00:49:16;48.24;43.39;53.87;;
72276;Laerm;61204;49.980;8.358;2022-10-16T00:51:47;49.67;43.87;57.32;;
72276;Laerm;61204;49.980;8.358;2022-10-16T00:54:30;49.76;42.31;58.20;;
72276;Laerm;61204;49.980;8.358;2022-10-16T00:57:02;49.34;42.31;56.26;;
72276;Laerm;61204;49.980;8.358;2022-10-16T00:59:41;49.93;42.90;60.04;;
72276;Laerm;61204;49.980;8.358;2022-10-16T01:02:14;48.23;41.10;55.49;;
72276;Laerm;61204;49.980;8.358;2022-10-16T01:04:50;46.88;41.04;56.31;;
72276;Laerm;61204;49.980;8.358;2022-10-16T01:07:48;47.45;41.97;60.44;;
72276;Laerm;61204;49.980;8.358;2022-10-16T01:10:41;48.52;41.26;56.50;;
72276;Laerm;61204;49.980;8.358;2022-10-16T01:13:21;50.55;45.88;64.63;;
72276;Laerm;61204;49.980;8.358;2022-10-16T01:16:14;49.90;45.33;66.36;;
72276;Laerm;61204;49.980;8.358;2022-10-16T01:18:52;49.97;44.12;67.65;;
72276;Laerm;61204;49.980;8.358;2022-10-16T01:21:43;46.28;40.25;56.26;;
72276;Laerm;61204;49.980;8.358;2022-10-16T01:24:44;41.98;38.38;47.78;;
72276;Laerm;61204;49.980;8.358;2022-10-16T01:27:21;41.52;37.29;48.97;;
72276;Laerm;61204;49.980;8.358;2022-10-16T01:29:56;42.42;37.20;48.62;;
72276;Laerm;61204;49.980;8.358;2022-10-16T01:33:13;41.81;36.88;53.36;;
72276;Laerm;61204;49.980;8.358;2022-10-16T01:35:57;46.97;38.42;58.20;;
72276;Laerm;61204;49.980;8.358;2022-10-16T01:38:37;48.16;41.19;58.52;;
72276;Laerm;61204;49.980;8.358;2022-10-16T01:41:18;48.64;42.89;55.33;;
72276;Laerm;61204;49.980;8.358;2022-10-16T01:43:57;45.63;41.47;51.88;;
72276;Laerm;61204;49.980;8.358;2022-10-16T01:46:30;46.62;36.43;53.91;;
72276;Laerm;61204;49.980;8.358;2022-10-16T01:48:59;49.12;41.20;65.22;;
72276;Laerm;61204;49.980;8.358;2022-10-16T01:51:29;47.67;40.37;59.83;;
72276;Laerm;61204;49.980;8.358;2022-10-16T01:54:00;47.79;43.08;55.77;;
72276;Laerm;61204;49.980;8.358;2022-10-16T01:56:29;48.08;42.23;57.84;;
72276;Laerm;61204;49.980;8.358;2022-10-16T01:59:20;49.36;41.57;57.19;;
72276;Laerm;61204;49.980;8.358;2022-10-16T02:02:02;47.29;41.85;55.48;;
72276;Laerm;61204;49.980;8.358;2022-10-16T02:04:38;47.27;40.51;56.04;;
72276;Laerm;61204;49.980;8.358;2022-10-16T02:07:06;45.33;39.94;52.06;;
72276;Laerm;61204;49.980;8.358;2022-10-16T02:09:36;45.68;39.71;54.51;;
72276;Laerm;61204;49.980;8.358;2022-10-16T02:12:29;48.56;42.02;59.27;;
72276;Laerm;61204;49.980;8.358;2022-10-16T02:14:56;47.39;41.16;54.64;;
72276;Laerm;61204;49.980;8.358;2022-10-16T02:17:23;47.87;40.43;58.00;;
72276;Laerm;61204;49.980;8.358;2022-10-16T02:19:53;45.84;39.54;53.05;;
72276;Laerm;61204;49.980;8.358;2022-10-16T02:25:22;40.74;36.91;51.38;;
72276;Laerm;61204;49.980;8.358;2022-10-16T02:28:08;43.57;38.96;51.94;;
72276;Laerm;61204;49.980;8.358;2022-10-16T02:30:54;45.70;40.42;56.82;;
72276;Laerm;61204;49.980;8.358;2022-10-16T02:33:25;45.91;40.36;56.63;;
72276;Laerm;61204;49.980;8.358;2022-10-16T02:35:54;45.59;38.38;55.72;;
72276;Laerm;61204;49.980;8.358;2022-10-16T02:38:23;44.10;37.63;53.70;;
72276;Laerm;61204;49.980;8.358;2022-10-16T02:40:50;43.26;39.32;51.23;;
72276;Laerm;61204;49.980;8.358;2022-10-16T02:43:16;46.07;38.34;57.18;;
72276;Laerm;61204;49.980;8.358;2022-10-16T02:45:42;44.62;37.91;51.24;;
72276;Laerm;61204;49.980;8.358;2022-10-16T02:48:08;43.19;37.42;50.43;;
72276;Laerm;61204;49.980;8.358;2022-10-16T02:50:34;45.09;38.73;56.00;;
72276;Laerm;61204;49.980;8.358;2022-10-16T02:53:00;43.53;38.20;49.30;;
72276;Laerm;61204;49.980;8.358;2022-10-16T02:55:26;42.07;37.42;48.25;;
72276;Laerm;61204;49.980;8.358;2022-10-16T02:57:53;41.36;36.30;49.12;;
72276;Laerm;61204;49.980;8.358;2022-10-16T03:00:20;41.61;37.62;49.00;;
72276;Laerm;61204;49.980;8.358;2022-10-16T03:02:46;43.19;38.70;47.52;;
72276;Laerm;61204;49.980;8.358;2022-10-16T03:05:13;43.97;39.76;47.81;;
72276;Laerm;61204;49.980;8.358;2022-10-16T03:07:39;45.54;40.32;50.59;;
72276;Laerm;61204;49.980;8.358;2022-10-16T03:10:06;46.24;41.49;54.31;;
72276;Laerm;61204;49.980;8.358;2022-10-16T03:12:31;45.66;39.96;51.44;;
72276;Laerm;61204;49.980;8.358;2022-10-16T03:14:58;46.07;40.83;53.06;;
72276;Laerm;61204;49.980;8.358;2022-10-16T03:17:24;46.58;38.86;52.11;;
72276;Laerm;61204;49.980;8.358;2022-10-16T03:19:50;50.36;43.79;57.38;;
72276;Laerm;61204;49.980;8.358;2022-10-16T03:22:16;48.57;42.91;55.78;;
72276;Laerm;61204;49.980;8.358;2022-10-16T03:24:42;50.28;43.84;55.04;;
72276;Laerm;61204;49.980;8.358;2022-10-16T03:27:08;49.06;44.12;56.10;;
72276;Laerm;61204;49.980;8.358;2022-10-16T03:29:33;48.07;42.08;53.96;;
72276;Laerm;61204;49.980;8.358;2022-10-16T03:32:00;49.22;43.80;55.74;;
72276;Laerm;61204;49.980;8.358;2022-10-16T03:34:26;50.03;43.57;57.38;;
72276;Laerm;61204;49.980;8.358;2022-10-16T03:36:53;49.45;42.66;55.73;;
72276;Laerm;61204;49.980;8.358;2022-10-16T03:39:19;48.69;39.98;56.61;;
72276;Laerm;61204;49.980;8.358;2022-10-16T03:41:45;50.05;43.59;58.77;;
72276;Laerm;61204;49.980;8.358;2022-10-16T03:44:13;47.90;40.67;62.45;;
72276;Laerm;61204;49.980;8.358;2022-10-16T03:46:38;47.11;40.42;53.72;;
72276;Laerm;61204;49.980;8.358;2022-10-16T03:49:04;46.59;40.70;51.67;;
72276;Laerm;61204;49.980;8.358;2022-10-16T03:51:30;45.93;41.79;50.81;;
72276;Laerm;61204;49.980;8.358;2022-10-16T03:53:55;47.67;42.40;53.22;;
72276;Laerm;61204;49.980;8.358;2022-10-16T03:56:21;46.74;41.20;52.58;;
72276;Laerm;61204;49.980;8.358;2022-10-16T03:58:46;46.26;41.73;51.70;;
72276;Laerm;61204;49.980;8.358;2022-10-16T04:01:12;47.63;41.49;54.54;;
72276;Laerm;61204;49.980;8.358;2022-10-16T04:03:38;48.47;43.24;53.27;;
72276;Laerm;61204;49.980;8.358;2022-10-16T04:06:03;48.33;43.39;53.42;;
72276;Laerm;61204;49.980;8.358;2022-10-16T04:08:29;47.62;43.13;51.90;;
72276;Laerm;61204;49.980;8.358;2022-10-16T04:10:55;49.11;43.60;55.59;;
72276;Laerm;61204;49.980;8.358;2022-10-16T04:13:20;49.49;45.23;56.08;;
72276;Laerm;61204;49.980;8.358;2022-10-16T04:15:46;49.74;44.60;55.06;;
72276;Laerm;61204;49.980;8.358;2022-10-16T04:18:12;48.67;44.59;52.95;;
72276;Laerm;61204;49.980;8.358;2022-10-16T04:20:38;48.22;42.35;53.37;;
72276;Laerm;61204;49.980;8.358;2022-10-16T04:23:04;49.93;44.88;56.21;;
72276;Laerm;61204;49.980;8.358;2022-10-16T04:25:30;47.36;42.49;56.14;;
72276;Laerm;61204;49.980;8.358;2022-10-16T04:27:56;49.90;44.43;57.17;;
72276;Laerm;61204;49.980;8.358;2022-10-16T04:30:23;49.96;43.47;57.30;;
72276;Laerm;61204;49.980;8.358;2022-10-16T04:32:50;50.41;45.22;58.08;;
72276;Laerm;61204;49.980;8.358;2022-10-16T04:35:21;49.10;43.78;54.43;;
72276;Laerm;61204;49.980;8.358;2022-10-16T04:37:47;48.42;43.37;54.84;;
72276;Laerm;61204;49.980;8.358;2022-10-16T04:40:13;48.62;43.05;55.89;;
72276;Laerm;61204;49.980;8.358;2022-10-16T04:42:39;49.79;44.14;55.39;;
72276;Laerm;61204;49.980;8.358;2022-10-16T04:45:07;49.56;44.10;56.80;;
72276;Laerm;61204;49.980;8.358;2022-10-16T04:47:34;50.71;44.81;59.87;;
72276;Laerm;61204;49.980;8.358;2022-10-16T04:49:59;51.38;46.62;58.57;;
72276;Laerm;61204;49.980;8.358;2022-10-16T04:52:26;50.12;44.48;59.45;;
72276;Laerm;61204;49.980;8.358;2022-10-16T04:54:52;50.54;44.80;61.38;;
72276;Laerm;61204;49.980;8.358;2022-10-16T04:57:19;48.42;43.54;54.38;;
72276;Laerm;61204;49.980;8.358;2022-10-16T04:59:44;48.80;44.60;54.98;;
72276;Laerm;61204;49.980;8.358;2022-10-16T05:02:10;50.35;45.06;56.38;;
72276;Laerm;61204;49.980;8.358;2022-10-16T05:04:36;50.17;43.01;56.68;;
72276;Laerm;61204;49.980;8.358;2022-10-16T05:07:01;51.71;47.51;63.84;;
72276;Laerm;61204;49.980;8.358;2022-10-16T05:09:27;52.77;46.92;61.42;;
72276;Laerm;61204;49.980;8.358;2022-10-16T05:11:52;49.48;44.68;55.76;;
72276;Laerm;61204;49.980;8.358;2022-10-16T05:14:18;51.05;44.58;64.16;;
72276;Laerm;61204;49.980;8.358;2022-10-16T05:16:44;48.96;41.98;65.63;;
72276;Laerm;61204;49.980;8.358;2022-10-16T05:19:10;49.95;41.50;59.81;;
72276;Laerm;61204;49.980;8.358;2022-10-16T05:21:35;52.25;45.31;58.93;;
72276;Laerm;61204;49.980;8.358;2022-10-16T05:24:01;52.44;46.49;60.35;;
72276;Laerm;61204;49.980;8.358;2022-10-16T05:26:26;51.58;45.65;59.77;;
72276;Laerm;61204;49.980;8.358;2022-10-16T05:28:52;49.98;44.14;58.15;;
72276;Laerm;61204;49.980;8.358;2022-10-16T05:31:18;50.75;43.10;60.02;;
72276;Laerm;61204;49.980;8.358;2022-10-16T05:33:43;50.56;44.58;59.85;;
72276;Laerm;61204;49.980;8.358;2022-10-16T05:36:10;47.90;42.07;57.52;;
72276;Laerm;61204;49.980;8.358;2022-10-16T05:38:37;48.51;42.68;60.64;;
72276;Laerm;61204;49.980;8.358;2022-10-16T05:41:05;47.23;43.39;51.97;;
72276;Laerm;61204;49.980;8.358;2022-10-16T05:43:32;47.55;43.40;52.21;;
72276;Laerm;61204;49.980;8.358;2022-10-16T05:46:01;49.97;43.26;64.29;;
72276;Laerm;61204;49.980;8.358;2022-10-16T05:48:28;49.49;43.36;54.97;;
72276;Laerm;61204;49.980;8.358;2022-10-16T05:51:05;50.35;44.32;56.38;;
72276;Laerm;61204;49.980;8.358;2022-10-16T05:53:35;50.83;44.78;56.61;;
72276;Laerm;61204;49.980;8.358;2022-10-16T05:56:03;49.28;44.49;59.16;;
72276;Laerm;61204;49.980;8.358;2022-10-16T05:58:33;48.85;41.70;58.34;;
72276;Laerm;61204;49.980;8.358;2022-10-16T06:01:11;48.78;39.85;60.55;;
72276;Laerm;61204;49.980;8.358;2022-10-16T06:03:37;51.00;39.10;66.19;;
72276;Laerm;61204;49.980;8.358;2022-10-16T06:06:22;43.52;38.74;52.02;;
72276;Laerm;61204;49.980;8.358;2022-10-16T06:08:49;46.80;39.20;58.97;;
72276;Laerm;61204;49.980;8.358;2022-10-16T06:11:26;44.68;37.65;58.00;;
72276;Laerm;61204;49.980;8.358;2022-10-16T06:13:56;48.40;39.83;60.87;;
72276;Laerm;61204;49.980;8.358;2022-10-16T06:16:24;47.04;39.80;60.23;;
72276;Laerm;61204;49.980;8.358;2022-10-16T06:18:54;44.90;41.14;55.32;;
72276;Laerm;61204;49.980;8.358;2022-10-16T06:21:24;47.65;41.41;55.38;;
72276;Laerm;61204;49.980;8.358;2022-10-16T06:23:52;46.60;40.75;56.97;;
72276;Laerm;61204;49.980;8.358;2022-10-16T06:26:22;50.31;43.64;60.79;;
72276;Laerm;61204;49.980;8.358;2022-10-16T06:28:48;48.66;43.37;59.24;;
72276;Laerm;61204;49.980;8.358;2022-10-16T06:31:16;49.75;45.46;61.32;;
72276;Laerm;61204;49.980;8.358;2022-10-16T06:33:43;51.95;45.22;64.00;;
72276;Laerm;61204;49.980;8.358;2022-10-16T06:36:13;49.07;44.29;61.96;;
72276;Laerm;61204;49.980;8.358;2022-10-16T06:38:40;51.29;46.23;61.75;;
72276;Laerm;61204;49.980;8.358;2022-10-16T06:41:13;51.55;46.19;58.44;;
72276;Laerm;61204;49.980;8.358;2022-10-16T06:43:39;49.75;45.12;60.25;;
72276;Laerm;61204;49.980;8.358;2022-10-16T06:46:09;50.27;45.43;58.72;;
72276;Laerm;61204;49.980;8.358;2022-10-16T06:48:36;51.93;47.24;60.48;;
72276;Laerm;61204;49.980;8.358;2022-10-16T06:51:12;53.22;45.60;60.49;;
72276;Laerm;61204;49.980;8.358;2022-10-16T06:53:46;49.78;44.92;55.67;;
72276;Laerm;61204;49.980;8.358;2022-10-16T06:56:24;49.17;44.19;56.89;;
72276;Laerm;61204;49.980;8.358;2022-10-16T06:58:53;48.98;44.27;56.40;;
72276;Laerm;61204;49.980;8.358;2022-10-16T07:01:22;49.41;45.44;57.48;;
72276;Laerm;61204;49.980;8.358;2022-10-16T07:03:49;49.86;45.07;69.88;;
72276;Laerm;61204;49.980;8.358;2022-10-16T07:06:19;48.37;43.89;56.14;;
72276;Laerm;61204;49.980;8.358;2022-10-16T07:08:48;46.93;43.17;52.95;;
72276;Laerm;61204;49.980;8.358;2022-10-16T07:11:18;45.25;41.81;59.47;;
72276;Laerm;61204;49.980;8.358;2022-10-16T07:13:46;47.37;43.08;65.02;;
72276;Laerm;61204;49.980;8.358;2022-10-16T07:16:19;48.00;42.12;58.43;;
72276;Laerm;61204;49.980;8.358;2022-10-16T07:18:47;46.32;42.50;53.17;;
72276;Laerm;61204;49.980;8.358;2022-10-16T07:21:20;46.04;41.59;57.42;;
72276;Laerm;61204;49.980;8.358;2022-10-16T07:23:58;48.06;43.25;56.86;;
72276;Laerm;61204;49.980;8.358;2022-10-16T07:26:27;49.29;45.82;54.10;;
72276;Laerm;61204;49.980;8.358;2022-10-16T07:28:53;50.32;46.82;55.62;;
72276;Laerm;61204;49.980;8.358;2022-10-16T07:31:20;49.50;45.25;55.06;;
72276;Laerm;61204;49.980;8.358;2022-10-16T07:33:47;49.03;45.44;59.48;;
72276;Laerm;61204;49.980;8.358;2022-10-16T07:36:16;49.67;45.71;58.28;;
72276;Laerm;61204;49.980;8.358;2022-10-16T07:38:44;48.42;44.84;52.87;;
72276;Laerm;61204;49.980;8.358;2022-10-16T07:41:15;47.42;44.13;51.07;;
72276;Laerm;61204;49.980;8.358;2022-10-16T07:43:46;48.83;44.97;57.17;;
72276;Laerm;61204;49.980;8.358;2022-10-16T07:46:13;50.15;42.57;59.18;;
72276;Laerm;61204;49.980;8.358;2022-10-16T07:48:39;47.58;42.21;59.49;;
72276;Laerm;61204;49.980;8.358;2022-10-16T07:51:07;46.88;40.80;58.60;;
72276;Laerm;61204;49.980;8.358;2022-10-16T07:53:33;47.36;39.93;60.02;;
72276;Laerm;61204;49.980;8.358;2022-10-16T07:56:04;45.48;41.25;55.93;;
72276;Laerm;61204;49.980;8.358;2022-10-16T07:58:30;45.43;41.15;57.28;;
72276;Laerm;61204;49.980;8.358;2022-10-16T08:00:58;51.67;41.22;62.02;;
72276;Laerm;61204;49.980;8.358;2022-10-16T08:03:25;46.28;40.36;57.24;;
72276;Laerm;61204;49.980;8.358;2022-10-16T08:05:51;48.79;39.89;62.26;;
72276;Laerm;61204;49.980;8.358;2022-10-16T08:08:18;47.51;41.26;57.07;;
72276;Laerm;61204;49.980;8.358;2022-10-16T08:10:45;46.45;41.90;57.98;;
72276;Laerm;61204;49.980;8.358;2022-10-16T08:13:11;53.04;42.60;68.08;;
72276;Laerm;61204;49.980;8.358;2022-10-16T08:15:37;61.39;42.99;73.83;;
72276;Laerm;61204;49.980;8.358;2022-10-16T08:18:05;52.77;43.12;63.31;;
72276;Laerm;61204;49.980;8.358;2022-10-16T08:20:32;49.91;42.55;63.19;;
72276;Laerm;61204;49.980;8.358;2022-10-16T08:23:00;51.10;41.03;63.04;;
72276;Laerm;61204;49.980;8.358;2022-10-16T08:25:27;49.24;42.54;61.47;;
72276;Laerm;61204;49.980;8.358;2022-10-16T08:27:53;51.99;42.09;63.93;;
72276;Laerm;61204;49.980;8.358;2022-10-16T08:30:23;50.27;42.24;67.92;;
72276;Laerm;61204;49.980;8.358;2022-10-16T08:32:50;47.77;40.99;59.48;;
72276;Laerm;61204;49.980;8.358;2022-10-16T08:35:16;44.34;40.72;49.63;;
72276;Laerm;61204;49.980;8.358;2022-10-16T08:37:42;44.49;40.87;52.00;;
72276;Laerm;61204;49.980;8.358;2022-10-16T08:40:38;44.06;39.63;55.16;;
72276;Laerm;61204;49.980;8.358;2022-10-16T08:46:21;48.63;40.68;60.70;;
72276;Laerm;61204;49.980;8.358;2022-10-16T08:48:57;49.10;39.98;57.87;;
72276;Laerm;61204;49.980;8.358;2022-10-16T08:51:31;49.64;39.85;63.33;;
72276;Laerm;61204;49.980;8.358;2022-10-16T08:54:34;50.36;42.14;59.31;;
72276;Laerm;61204;49.980;8.358;2022-10-16T08:57:22;45.25;41.55;55.18;;
72276;Laerm;61204;49.980;8.358;2022-10-16T08:59:49;50.96;42.32;61.55;;
72276;Laerm;61204;49.980;8.358;2022-10-16T09:02:30;49.37;42.08;61.22;;
72276;Laerm;61204;49.980;8.358;2022-10-16T09:17:56;59.19;48.55;73.47;;
72276;Laerm;61204;49.980;8.358;2022-10-16T09:20:51;55.25;47.73;71.09;;
72276;Laerm;61204;49.980;8.358;2022-10-16T09:23:34;52.74;45.30;68.81;;
72276;Laerm;61204;49.980;8.358;2022-10-16T09:26:02;53.06;45.93;74.40;;
72276;Laerm;61204;49.980;8.358;2022-10-16T09:28:28;55.58;46.20;77.57;;
72276;Laerm;61204;49.980;8.358;2022-10-16T09:30:53;56.46;45.37;76.18;;
72276;Laerm;61204;49.980;8.358;2022-10-16T09:33:33;47.10;43.11;65.59;;
72276;Laerm;61204;49.980;8.358;2022-10-16T09:36:04;47.11;39.34;58.86;;
72276;Laerm;61204;49.980;8.358;2022-10-16T09:38:36;51.02;39.01;63.01;;
72276;Laerm;61204;49.980;8.358;2022-10-16T09:41:21;46.78;39.49;57.84;;
72276;Laerm;61204;49.980;8.358;2022-10-16T09:44:01;49.90;42.74;62.46;;
72276;Laerm;61204;49.980;8.358;2022-10-16T09:46:33;45.01;42.53;50.14;;
72276;Laerm;61204;49.980;8.358;2022-10-16T09:49:18;50.69;42.71;59.34;;
72276;Laerm;61204;49.980;8.358;2022-10-16T09:51:45;46.75;39.83;61.38;;
72276;Laerm;61204;49.980;8.358;2022-10-16T09:54:19;47.94;39.79;61.54;;
72276;Laerm;61204;49.980;8.358;2022-10-16T09:56:45;43.30;38.44;60.30;;
72276;Laerm;61204;49.980;8.358;2022-10-16T09:59:21;50.34;38.53;63.26;;
72276;Laerm;61204;49.980;8.358;2022-10-16T10:01:53;43.14;38.94;57.45;;
72276;Laerm;61204;49.980;8.358;2022-10-16T10:04:23;46.10;40.26;60.03;;
72276;Laerm;61204;49.980;8.358;2022-10-16T10:06:55;44.64;40.24;55.00;;
72276;Laerm;61204;49.980;8.358;2022-10-16T10:12:03;55.74;42.61;72.34;;
72276;Laerm;61204;49.980;8.358;2022-10-16T10:14:37;48.84;43.26;56.45;;
72276;Laerm;61204;49.980;8.358;2022-10-16T10:20:15;45.77;41.59;58.76;;
72276;Laerm;61204;49.980;8.358;2022-10-16T10:22:44;47.51;42.36;60.23;;
72276;Laerm;61204;49.980;8.358;2022-10-16T10:31:21;54.49;41.97;66.35;;
72276;Laerm;61204;49.980;8.358;2022-10-16T10:34:22;49.51;43.62;59.09;;
72276;Laerm;61204;49.980;8.358;2022-10-16T10:37:37;49.37;42.86;59.96;;
72276;Laerm;61204;49.980;8.358;2022-10-16T10:50:03;50.96;42.28;60.52;;
72276;Laerm;61204;49.980;8.358;2022-10-16T10:53:02;48.80;41.31;65.13;;
72276;Laerm;61204;49.980;8.358;2022-10-16T10:55:46;47.95;42.87;68.21;;
72276;Laerm;61204;49.980;8.358;2022-10-16T11:02:01;50.03;43.31;60.55;;
72276;Laerm;61204;49.980;8.358;2022-10-16T11:07:20;48.93;41.58;60.78;;
72276;Laerm;61204;49.980;8.358;2022-10-16T11:09:57;46.75;40.29;60.66;;
72276;Laerm;61204;49.980;8.358;2022-10-16T11:12:47;47.39;42.85;57.22;;
72276;Laerm;61204;49.980;8.358;2022-10-16T11:15:30;50.45;43.72;61.84;;
72276;Laerm;61204;49.980;8.358;2022-10-16T11:18:14;48.31;42.90;57.54;;
72276;Laerm;61204;49.980;8.358;2022-10-16T11:20:52;51.44;43.44;60.97;;
72276;Laerm;61204;49.980;8.358;2022-10-16T11:23:39;50.04;43.77;60.91;;
72276;Laerm;61204;49.980;8.358;2022-10-16T11:26:21;52.37;44.28;60.90;;
72276;Laerm;61204;49.980;8.358;2022-10-16T11:28:53;48.46;43.69;67.27;;
72276;Laerm;61204;49.980;8.358;2022-10-16T11:31:47;50.80;45.33;58.76;;
72276;Laerm;61204;49.980;8.358;2022-10-16T11:36:58;50.18;44.69;59.09;;
72276;Laerm;61204;49.980;8.358;2022-10-16T11:39:30;48.76;44.38;54.53;;
72276;Laerm;61204;49.980;8.358;2022-10-16T11:42:22;51.20;44.76;62.41;;
72276;Laerm;61204;49.980;8.358;2022-10-16T11:47:36;50.18;45.40;59.81;;
72276;Laerm;61204;49.980;8.358;2022-10-16T11:50:39;53.34;47.41;63.17;;
72276;Laerm;61204;49.980;8.358;2022-10-16T11:56:16;50.79;46.50;56.16;;
72276;Laerm;61204;49.980;8.358;2022-10-16T11:59:05;52.20;46.32;62.97;;
72276;Laerm;61204;49.980;8.358;2022-10-16T12:08:06;50.45;45.87;55.85;;
72276;Laerm;61204;49.980;8.358;2022-10-16T12:10:35;51.03;46.46;55.94;;
72276;Laerm;61204;49.980;8.358;2022-10-16T12:13:39;49.59;44.07;60.39;;
72276;Laerm;61204;49.980;8.358;2022-10-16T12:18:38;53.15;46.73;62.90;;
72276;Laerm;61204;49.980;8.358;2022-10-16T12:21:05;48.13;45.01;55.50;;
72276;Laerm;61204;49.980;8.358;2022-10-16T12:23:58;55.31;44.55;67.55;;
72276;Laerm;61204;49.980;8.358;2022-10-16T12:26:45;48.85;45.49;57.37;;
72276;Laerm;61204;49.980;8.358;2022-10-16T12:29:33;48.94;42.80;54.79;;
72276;Laerm;61204;49.980;8.358;2022-10-16T12:32:04;47.92;43.67;62.82;;
72276;Laerm;61204;49.980;8.358;2022-10-16T12:34:44;48.95;44.91;58.31;;
72276;Laerm;61204;49.980;8.358;2022-10-16T12:37:27;48.83;44.24;56.90;;
72276;Laerm;61204;49.980;8.358;2022-10-16T12:39:56;51.39;45.99;60.11;;
72276;Laerm;61204;49.980;8.358;2022-10-16T12:44:55;50.99;44.59;61.58;;
72276;Laerm;61204;49.980;8.358;2022-10-16T12:47:50;49.12;43.82;55.01;;
72276;Laerm;61204;49.980;8.358;2022-10-16T12:50:48;47.94;42.29;56.84;;
72276;Laerm;61204;49.980;8.358;2022-10-16T12:53:25;50.20;43.12;61.66;;
72276;Laerm;61204;49.980;8.358;2022-10-16T12:56:14;48.94;42.47;57.92;;
72276;Laerm;61204;49.980;8.358;2022-10-16T13:02:22;49.81;42.28;62.44;;
72276;Laerm;61204;49.980;8.358;2022-10-16T13:29:42;50.78;45.64;59.84;;
72276;Laerm;61204;49.980;8.358;2022-10-16T13:32:14;48.54;44.50;59.46;;
72276;Laerm;61204;49.980;8.358;2022-10-16T13:34:48;48.66;44.67;55.48;;
72276;Laerm;61204;49.980;8.358;2022-10-16T13:37:24;49.08;45.27;53.72;;
72276;Laerm;61204;49.980;8.358;2022-10-16T13:39:50;48.95;44.87;55.33;;
72276;Laerm;61204;49.980;8.358;2022-10-16T13:42:27;49.15;44.50;62.74;;
72276;Laerm;61204;49.980;8.358;2022-10-16T13:44:56;54.53;44.57;78.45;;
72276;Laerm;61204;49.980;8.358;2022-10-16T13:47:29;50.29;45.21;58.00;;
72276;Laerm;61204;49.980;8.358;2022-10-16T13:50:15;50.74;44.65;61.71;;
72276;Laerm;61204;49.980;8.358;2022-10-16T13:52:41;49.77;46.10;55.30;;
72276;Laerm;61204;49.980;8.358;2022-10-16T13:55:17;49.65;45.96;55.00;;
72276;Laerm;61204;49.980;8.358;2022-10-16T13:57:44;49.91;45.77;55.35;;
72276;Laerm;61204;49.980;8.358;2022-10-16T14:00:28;52.19;47.30;61.65;;
72276;Laerm;61204;49.980;8.358;2022-10-16T14:03:07;52.19;47.51;61.55;;
72276;Laerm;61204;49.980;8.358;2022-10-16T14:05:51;51.02;46.38;56.54;;
72276;Laerm;61204;49.980;8.358;2022-10-16T14:08:18;52.64;48.28;67.08;;
72276;Laerm;61204;49.980;8.358;2022-10-16T14:10:52;51.34;46.70;58.98;;
72276;Laerm;61204;49.980;8.358;2022-10-16T14:13:34;54.46;48.25;62.69;;
72276;Laerm;61204;49.980;8.358;2022-10-16T14:16:09;50.21;45.23;58.24;;
72276;Laerm;61204;49.980;8.358;2022-10-16T14:18:39;49.42;44.88;53.64;;
72276;Laerm;61204;49.980;8.358;2022-10-16T14:21:15;50.10;45.90;58.10;;
72276;Laerm;61204;49.980;8.358;2022-10-16T14:23:42;50.87;45.75;60.92;;
72276;Laerm;61204;49.980;8.358;2022-10-16T14:28:36;50.04;44.67;58.02;;
72276;Laerm;61204;49.980;8.358;2022-10-16T14:31:24;49.78;45.33;57.28;;
72276;Laerm;61204;49.980;8.358;2022-10-16T14:33:50;51.25;45.21;58.18;;
72276;Laerm;61204;49.980;8.358;2022-10-16T14:36:17;51.70;46.36;57.82;;
72276;Laerm;61204;49.980;8.358;2022-10-16T14:39:04;50.39;45.75;57.88;;
72276;Laerm;61204;49.980;8.358;2022-10-16T14:41:32;50.09;46.17;55.62;;
72276;Laerm;61204;49.980;8.358;2022-10-16T14:44:04;50.01;45.64;56.86;;
72276;Laerm;61204;49.980;8.358;2022-10-16T14:46:37;50.01;45.62;54.61;;
72276;Laerm;61204;49.980;8.358;2022-10-16T14:51:40;49.71;44.72;57.81;;
72276;Laerm;61204;49.980;8.358;2022-10-16T14:54:09;50.17;45.56;68.24;;
72276;Laerm;61204;49.980;8.358;2022-10-16T14:56:57;50.13;43.61;57.47;;
72276;Laerm;61204;49.980;8.358;2022-10-16T14:59:40;48.99;44.62;55.88;;
72276;Laerm;61204;49.980;8.358;2022-10-16T15:04:57;51.28;45.32;63.97;;
72276;Laerm;61204;49.980;8.358;2022-10-16T15:07:24;50.84;46.18;57.57;;
72276;Laerm;61204;49.980;8.358;2022-10-16T15:09:50;50.92;46.36;57.93;;
72276;Laerm;61204;49.980;8.358;2022-10-16T15:12:17;51.08;45.63;59.69;;
72276;Laerm;61204;49.980;8.358;2022-10-16T15:14:43;52.28;45.01;62.73;;
72276;Laerm;61204;49.980;8.358;2022-10-16T15:17:12;51.24;46.52;58.63;;
72276;Laerm;61204;49.980;8.358;2022-10-16T15:19:38;51.49;44.74;62.00;;
72276;Laerm;61204;49.980;8.358;2022-10-16T15:22:04;49.37;44.78;57.88;;
72276;Laerm;61204;49.980;8.358;2022-10-16T15:24:29;50.59;44.99;58.34;;
72276;Laerm;61204;49.980;8.358;2022-10-16T15:26:55;50.55;46.65;55.56;;
72276;Laerm;61204;49.980;8.358;2022-10-16T15:29:20;50.99;46.37;56.91;;
72276;Laerm;61204;49.980;8.358;2022-10-16T15:31:46;51.44;47.45;55.59;;
72276;Laerm;61204;49.980;8.358;2022-10-16T15:34:13;52.76;46.89;60.09;;
72276;Laerm;61204;49.980;8.358;2022-10-16T15:36:40;52.84;47.86;59.32;;
72276;Laerm;61204;49.980;8.358;2022-10-16T15:39:15;52.06;45.89;58.71;;
72276;Laerm;61204;49.980;8.358;2022-10-16T15:41:43;52.49;46.29;60.67;;
72276;Laerm;61204;49.980;8.358;2022-10-16T15:44:09;51.80;47.45;63.35;;
72276;Laerm;61204;49.980;8.358;2022-10-16T15:46:35;51.68;47.00;59.65;;
72276;Laerm;61204;49.980;8.358;2022-10-16T15:49:03;51.49;46.92;58.61;;
72276;Laerm;61204;49.980;8.358;2022-10-16T15:51:29;50.95;46.98;56.17;;
72276;Laerm;61204;49.980;8.358;2022-10-16T15:53:59;52.29;47.71;60.33;;
72276;Laerm;61204;49.980;8.358;2022-10-16T15:56:28;51.13;46.44;56.64;;